Time;durP1;ratioP1;P1;durP2;ratioP2;P2;SDS_P1;SDS_P2;PMS_P1;PMS_P2;Temp;Humidity;BMP_temperature;BMP_pressure;BME280_temperature;BME280_humidity;BME280_pressure;Samples;Min_cycle;Max_cycle;Signal;HPM_P1;HPM_P2
2022/06/15 00:00:37;;;;;;;;;;;;;;;19.35;47.21;100320.56;4346200;32;20044;-82
2022/06/15 00:03:04;;;;;;;;;;;;;;;19.31;47.00;100324.13;4333934;33;19979;-82
2022/06/15 00:05:31;;;;;;;;;;;;;;;19.35;46.97;100329.31;4325332;32;19975;-82
2022/06/15 00:07:58;;;;;;;;;;;;;;;19.28;46.57;100335.53;4326902;32;20329;-82
2022/06/15 00:10:26;;;;;;;;;;;;;;;19.39;46.05;100336.25;4328506;32;19980;-82
2022/06/15 00:12:53;;;;;;;;;;;;;;;19.25;46.86;100333.81;4348624;32;20059;-82
2022/06/15 00:15:20;;;;;;;;;;;;;;;19.32;46.76;100333.72;4332011;33;19994;-82
2022/06/15 00:17:47;;;;;;;;;;;;;;;19.21;47.08;100332.09;4354537;32;19996;-82
2022/06/15 00:20:14;;;;;;;;;;;;;;;19.11;47.65;100332.22;4336881;32;19995;-82
2022/06/15 00:22:41;;;;;;;;;;;;;;;19.03;48.26;100335.78;4336000;32;19980;-81
2022/06/15 00:25:09;;;;;;;;;;;;;;;19.05;48.09;100334.03;4335704;32;20039;-82
2022/06/15 00:27:36;;;;;;;;;;;;;;;19.00;48.24;100325.31;4338214;32;20378;-82
2022/06/15 00:30:04;;;;;;;;;;;;;;;18.96;48.64;100328.00;4356487;32;19995;-82
2022/06/15 00:32:31;;;;;;;;;;;;;;;18.97;47.79;100330.59;4339968;33;20463;-81
2022/06/15 00:34:57;;;;;;;;;;;;;;;18.83;48.01;100326.41;4372036;32;20015;-82
2022/06/15 00:37:24;;;;;;;;;;;;;;;18.76;48.00;100333.44;4342295;32;20058;-82
2022/06/15 00:39:51;;;;;;;;;;;;;;;18.96;47.60;100328.87;4348298;32;20338;-82
2022/06/15 00:42:20;;;;;;;;;;;;;;;18.86;47.91;100327.25;4338163;32;19986;-82
2022/06/15 00:44:49;;;;;;;;;;;;;;;18.77;47.80;100324.69;4363320;32;20079;-81
2022/06/15 00:47:20;;;;;;;;;;;;;;;18.53;48.56;100324.00;4335607;32;19987;-81
2022/06/15 00:49:50;;;;;;;;;;;;;;;18.76;47.25;100315.06;4335310;32;20377;-82
2022/06/15 00:52:18;;;;;;;;;;;;;;;18.86;46.62;100322.00;4355302;32;20032;-82
2022/06/15 00:54:46;;;;;;;;;;;;;;;18.76;46.35;100310.72;4350766;32;19995;-82
2022/06/15 00:57:13;;;;;;;;;;;;;;;18.62;46.95;100322.19;4347722;32;20011;-82
2022/06/15 00:59:43;;;;;;;;;;;;;;;18.82;45.94;100322.88;4340324;32;20002;-82
2022/06/15 01:02:10;;;;;;;;;;;;;;;18.83;45.55;100327.28;4358046;32;19992;-82
2022/06/15 01:04:40;;;;;;;;;;;;;;;18.79;45.87;100334.31;4347505;32;19996;-82
2022/06/15 01:07:16;;;;;;;;;;;;;;;18.78;46.60;100334.31;4358869;32;19983;-82
2022/06/15 01:10:01;;;;;;;;;;;;;;;18.54;47.47;100333.62;4363768;32;20111;-82
2022/06/15 01:12:37;;;;;;;;;;;;;;;18.67;47.48;100330.91;4353022;32;19984;-81
2022/06/15 01:15:13;;;;;;;;;;;;;;;18.45;47.61;100330.19;4312058;32;20481;-82
2022/06/15 01:17:44;;;;;;;;;;;;;;;18.62;47.44;100332.66;4322315;32;19995;-81
2022/06/15 01:20:23;;;;;;;;;;;;;;;18.56;47.06;100344.94;4371407;32;19998;-81
2022/06/15 01:22:53;;;;;;;;;;;;;;;18.47;47.78;100342.37;4341413;32;20283;-82
2022/06/15 01:25:23;;;;;;;;;;;;;;;18.44;48.42;100350.31;4330070;32;20306;-82
2022/06/15 01:27:56;;;;;;;;;;;;;;;18.37;48.68;100343.34;4352371;32;20006;-82
2022/06/15 01:30:36;;;;;;;;;;;;;;;18.45;48.32;100346.78;4363017;32;19990;-82
2022/06/15 01:33:07;;;;;;;;;;;;;;;18.47;48.47;100339.78;4355322;32;19979;-81
2022/06/15 01:35:38;;;;;;;;;;;;;;;18.27;48.74;100354.78;4350319;32;19979;-82
2022/06/15 01:38:45;;;;;;;;;;;;;;;18.20;49.33;100350.47;4351047;32;19995;-82
2022/06/15 01:41:18;;;;;;;;;;;;;;;18.19;48.98;100354.84;4367529;32;20368;-82
2022/06/15 01:43:50;;;;;;;;;;;;;;;18.10;49.39;100345.31;4367325;32;20013;-82
2022/06/15 01:46:17;;;;;;;;;;;;;;;18.20;48.60;100355.72;4337828;32;19998;-82
2022/06/15 01:48:45;;;;;;;;;;;;;;;18.12;48.33;100354.03;4349827;32;20034;-82
2022/06/15 01:51:13;;;;;;;;;;;;;;;18.06;48.22;100351.44;4351868;32;20381;-82
2022/06/15 01:53:45;;;;;;;;;;;;;;;18.17;47.71;100350.50;4339003;32;19971;-82
2022/06/15 01:56:32;;;;;;;;;;;;;;;18.09;47.68;100356.66;4364399;32;20050;-81
2022/06/15 01:59:00;;;;;;;;;;;;;;;18.10;48.57;100350.53;4340048;32;20057;-81
2022/06/15 02:01:45;;;;;;;;;;;;;;;17.87;49.60;100352.44;4331405;32;19986;-81
2022/06/15 02:04:16;;;;;;;;;;;;;;;17.90;48.93;100357.66;4334763;32;20323;-81
2022/06/15 02:06:47;;;;;;;;;;;;;;;17.69;50.28;100352.50;4342840;32;20014;-81
2022/06/15 02:09:20;;;;;;;;;;;;;;;17.78;49.75;100352.47;4327597;32;19996;-81
2022/06/15 02:11:47;;;;;;;;;;;;;;;17.92;49.31;100352.41;4317408;32;20008;-81
2022/06/15 02:14:19;;;;;;;;;;;;;;;17.73;50.32;100355.06;4328385;33;19972;-81
2022/06/15 02:16:51;;;;;;;;;;;;;;;17.95;48.93;100358.50;4306964;33;19982;-81
2022/06/15 02:19:21;;;;;;;;;;;;;;;17.79;48.97;100359.44;4330444;32;19992;-82
2022/06/15 02:21:48;;;;;;;;;;;;;;;17.64;49.45;100350.78;4309473;32;20012;-81
2022/06/15 02:24:16;;;;;;;;;;;;;;;17.55;49.87;100352.53;4340217;32;20425;-82
2022/06/15 02:26:43;;;;;;;;;;;;;;;17.73;49.40;100348.97;4017905;32;10001048;-82
2022/06/15 02:29:15;;;;;;;;;;;;;;;17.80;48.86;100350.72;4359049;32;20027;-82
2022/06/15 02:31:44;;;;;;;;;;;;;;;17.74;48.78;100355.94;4337040;32;19988;-82
2022/06/15 02:34:11;;;;;;;;;;;;;;;17.71;48.57;100355.94;4348288;32;20010;-82
2022/06/15 02:36:39;;;;;;;;;;;;;;;17.63;48.71;100354.25;4348849;32;20015;-82
2022/06/15 02:39:07;;;;;;;;;;;;;;;17.74;47.49;100356.84;4358190;32;20003;-82
2022/06/15 02:41:34;;;;;;;;;;;;;;;17.60;48.04;100350.78;4345730;32;20011;-81
2022/06/15 02:44:02;;;;;;;;;;;;;;;17.86;47.44;100342.81;4326823;32;787321;-81
2022/06/15 02:46:31;;;;;;;;;;;;;;;17.86;46.80;100356.78;4336026;32;20013;-81
2022/06/15 02:48:59;;;;;;;;;;;;;;;17.79;47.32;100354.22;4374385;32;20364;-81
2022/06/15 02:51:33;;;;;;;;;;;;;;;17.53;48.67;100352.56;4357185;32;20640;-81
2022/06/15 02:54:10;;;;;;;;;;;;;;;17.71;47.30;100351.63;4369480;32;19995;-81
2022/06/15 02:56:36;;;;;;;;;;;;;;;17.84;46.58;100349.84;4362935;32;20007;-82
2022/06/15 02:59:06;;;;;;;;;;;;;;;17.69;47.79;100357.72;4365871;32;19989;-82
2022/06/15 03:01:36;;;;;;;;;;;;;;;17.62;48.44;100357.75;4338626;32;20012;-82
2022/06/15 03:04:03;;;;;;;;;;;;;;;17.66;47.96;100361.22;4339695;32;19991;-82
2022/06/15 03:06:30;;;;;;;;;;;;;;;17.71;47.77;100362.09;4353261;32;20030;-82
2022/06/15 03:08:57;;;;;;;;;;;;;;;17.68;48.14;100364.72;4345911;32;19991;-81
2022/06/15 03:11:24;;;;;;;;;;;;;;;17.66;48.04;100359.47;4352996;32;19983;-82
2022/06/15 03:13:53;;;;;;;;;;;;;;;17.76;47.46;100369.91;4359487;32;20481;-81
2022/06/15 03:16:20;;;;;;;;;;;;;;;17.65;48.50;100362.97;4359969;32;19991;-82
2022/06/15 03:18:47;;;;;;;;;;;;;;;17.69;48.34;100365.59;4368995;32;20015;-82
2022/06/15 03:21:15;;;;;;;;;;;;;;;17.67;48.20;100366.44;4359931;32;19983;-82
2022/06/15 03:23:42;;;;;;;;;;;;;;;17.79;48.03;100372.53;4350728;32;20058;-82
2022/06/15 03:26:10;;;;;;;;;;;;;;;17.86;47.90;100371.63;4352927;32;20707;-82
2022/06/15 03:28:38;;;;;;;;;;;;;;;17.75;48.73;100373.41;4351320;32;20007;-81
2022/06/15 03:31:05;;;;;;;;;;;;;;;17.88;48.27;100380.34;4341068;32;19976;-81
2022/06/15 03:33:32;;;;;;;;;;;;;;;17.86;48.96;100371.63;4344142;32;19980;-82
2022/06/15 03:36:00;;;;;;;;;;;;;;;17.93;48.43;100373.31;4354060;32;19986;-82
2022/06/15 03:38:30;;;;;;;;;;;;;;;17.90;48.33;100373.38;4334528;32;20031;-82
2022/06/15 03:40:58;;;;;;;;;;;;;;;18.00;47.81;100368.97;4352940;32;19997;-82
2022/06/15 03:43:25;;;;;;;;;;;;;;;17.86;48.12;100372.50;4339040;32;20000;-82
2022/06/15 03:45:53;;;;;;;;;;;;;;;17.95;47.37;100368.09;4364810;32;20025;-82
2022/06/15 03:48:20;;;;;;;;;;;;;;;17.95;47.68;100361.09;4339748;32;20168;-82
2022/06/15 03:50:47;;;;;;;;;;;;;;;17.86;48.14;100371.63;4368918;32;20369;-82
2022/06/15 03:53:15;;;;;;;;;;;;;;;17.87;48.25;100373.41;4350525;32;20003;-82
2022/06/15 03:55:43;;;;;;;;;;;;;;;17.80;48.98;100369.91;4367039;32;20003;-82
2022/06/15 03:58:15;;;;;;;;;;;;;;;18.06;48.14;100374.12;4352174;32;19990;-82
2022/06/15 04:00:44;;;;;;;;;;;;;;;18.16;47.34;100367.97;4338903;32;19998;-82
2022/06/15 04:03:12;;;;;;;;;;;;;;;18.00;48.40;100369.81;4338204;32;20030;-82
2022/06/15 04:05:42;;;;;;;;;;;;;;;18.13;47.90;100376.72;4341744;32;19984;-82
2022/06/15 04:11:03;;;;;;;;;;;;;;;18.20;48.11;100371.44;4336592;32;20349;-82
2022/06/15 04:13:30;;;;;;;;;;;;;;;18.26;48.46;100371.41;4333953;32;20053;-83
2022/06/15 04:15:58;;;;;;;;;;;;;;;18.30;48.33;100375.75;4340329;32;19984;-82
2022/06/15 04:18:26;;;;;;;;;;;;;;;18.39;47.23;100373.06;4324362;32;20007;-82
2022/06/15 04:20:53;;;;;;;;;;;;;;;18.33;47.44;100373.09;4338137;32;19988;-81
2022/06/15 04:23:20;;;;;;;;;;;;;;;18.38;47.68;100373.94;4322791;32;19980;-81
2022/06/15 04:25:51;;;;;;;;;;;;;;;18.39;47.82;100373.06;4340142;32;20002;-84
2022/06/15 04:28:20;;;;;;;;;;;;;;;18.46;48.21;100377.38;4342292;32;20006;-82
2022/06/15 04:30:47;;;;;;;;;;;;;;;18.49;48.35;100379.97;4340594;32;20081;-82
2022/06/15 04:33:17;;;;;;;;;;;;;;;18.48;46.90;100382.63;4314601;32;20036;-81
2022/06/15 04:35:44;;;;;;;;;;;;;;;18.44;47.65;100381.78;4347655;32;20108;-84
2022/06/15 04:38:11;;;;;;;;;;;;;;;18.63;46.43;100378.97;4341521;32;20139;-87
2022/06/15 04:40:40;;;;;;;;;;;;;;;18.48;47.75;100373.00;4338689;32;20073;-86
2022/06/15 04:43:07;;;;;;;;;;;;;;;18.50;48.04;100376.44;4353799;32;19987;-84
2022/06/15 04:45:35;;;;;;;;;;;;;;;18.77;46.99;100379.78;4335609;32;19988;-83
2022/06/15 04:48:03;;;;;;;;;;;;;;;18.72;47.71;100379.81;4328389;32;20390;-88
2022/06/15 04:50:30;;;;;;;;;;;;;;;18.83;48.30;100379.72;4342777;32;20006;-83
2022/06/15 04:52:59;;;;;;;;;;;;;;;18.98;48.12;100378.69;4325472;32;19986;-84
2022/06/15 04:55:27;;;;;;;;;;;;;;;19.00;47.66;100377.81;4333052;32;20123;-85
2022/06/15 04:57:57;;;;;;;;;;;;;;;19.11;48.07;100384.69;4324711;32;20382;-85
2022/06/15 05:00:26;;;;;;;;;;;;;;;19.22;48.10;100372.34;4331983;32;19983;-85
2022/06/15 05:02:53;;;;;;;;;;;;;;;19.28;48.07;100382.78;4347192;32;20070;-88
2022/06/15 05:05:21;;;;;;;;;;;;;;;19.26;48.30;100374.03;4341093;32;19982;-85
2022/06/15 05:07:48;;;;;;;;;;;;;;;19.11;48.51;100384.69;4338597;32;20021;-84
2022/06/15 05:10:18;;;;;;;;;;;;;;;19.28;48.00;100390.66;4332678;32;20358;-87
2022/06/15 05:12:46;;;;;;;;;;;;;;;19.37;48.75;100387.03;4324141;32;20074;-85
2022/06/15 05:15:13;;;;;;;;;;;;;;;19.49;48.22;100393.00;4334060;32;20869;-87
2022/06/15 05:17:41;;;;;;;;;;;;;;;19.63;47.13;100384.12;4323854;32;20042;-85
2022/06/15 05:20:09;;;;;;;;;;;;;;;19.65;47.70;100387.62;4353700;32;20011;-84
2022/06/15 05:22:37;;;;;;;;;;;;;;;19.73;47.80;100391.03;4332182;32;19999;-85
2022/06/15 05:25:06;;;;;;;;;;;;;;;19.74;46.83;100392.75;4349452;32;19980;-85
2022/06/15 05:27:33;;;;;;;;;;;;;;;19.81;47.56;100383.91;4364357;32;19991;-85
2022/06/15 05:30:00;;;;;;;;;;;;;;;19.94;47.62;100385.50;4351659;32;20567;-84
2022/06/15 05:32:27;;;;;;;;;;;;;;;19.96;47.18;100383.72;4344150;32;20025;-85
2022/06/15 05:34:54;;;;;;;;;;;;;;;20.05;46.03;100381.84;4369441;32;19984;-84
2022/06/15 05:37:29;;;;;;;;;;;;;;;20.08;45.43;100387.94;4336662;32;20066;-87
2022/06/15 05:39:56;;;;;;;;;;;;;;;20.20;45.05;100389.53;4355240;32;20008;-88
2022/06/15 05:42:25;;;;;;;;;;;;;;;20.28;44.66;100395.53;4347755;32;20036;-89
2022/06/15 05:44:54;;;;;;;;;;;;;;;20.40;44.02;100390.09;4340998;32;20014;-87
2022/06/15 05:47:21;;;;;;;;;;;;;;;20.53;44.86;100395.19;4343629;32;20019;-90
2022/06/15 05:49:48;;;;;;;;;;;;;;;20.50;44.79;100401.31;4351798;32;19991;-88
2022/06/15 05:52:16;;;;;;;;;;;;;;;20.63;44.68;100402.03;4353105;32;19999;-88
2022/06/15 05:54:44;;;;;;;;;;;;;;;20.62;44.24;100392.41;4351630;32;20472;-87
2022/06/15 05:57:11;;;;;;;;;;;;;;;20.77;43.80;100396.53;4341571;32;20418;-87
2022/06/15 05:59:48;;;;;;;;;;;;;;;20.72;43.74;100395.75;4366763;32;19997;-85
2022/06/15 06:02:15;;;;;;;;;;;;;;;21.01;43.95;100387.38;4370800;32;20345;-87
2022/06/15 06:04:42;;;;;;;;;;;;;;;21.09;44.45;100398.59;4344585;32;19976;-88
2022/06/15 06:07:16;;;;;;;;;;;;;;;21.19;43.61;100392.28;4351776;32;20030;-87
2022/06/15 06:09:43;;;;;;;;;;;;;;;21.08;42.79;100402.13;4340742;32;20039;-88
2022/06/15 06:12:09;;;;;;;;;;;;;;;21.37;43.25;100402.50;4334618;32;19971;-88
2022/06/15 06:14:38;;;;;;;;;;;;;;;21.75;42.56;100398.22;4330464;32;19984;-87
2022/06/15 06:17:05;;;;;;;;;;;;;;;22.18;40.80;100402.63;4334355;32;19995;-86
2022/06/15 06:19:33;;;;;;;;;;;;;;;22.48;37.95;100395.75;4346119;32;19996;-88
2022/06/15 06:22:00;;;;;;;;;;;;;;;22.92;37.60;100406.13;4355459;32;19996;-86
2022/06/15 06:24:27;;;;;;;;;;;;;;;23.16;36.44;100402.84;4346607;32;19987;-86
2022/06/15 06:26:57;;;;;;;;;;;;;;;23.62;35.55;100404.22;4339533;32;20374;-85
2022/06/15 06:29:24;;;;;;;;;;;;;;;23.90;34.92;100404.31;4342378;32;20082;-86
2022/06/15 06:31:51;;;;;;;;;;;;;;;24.01;35.03;100395.19;4363525;32;20034;-88
2022/06/15 06:34:20;;;;;;;;;;;;;;;24.46;34.69;100403.50;4355479;32;19998;-87
2022/06/15 06:36:48;;;;;;;;;;;;;;;24.81;34.37;100404.13;4360168;32;19998;-88
2022/06/15 06:39:16;;;;;;;;;;;;;;;25.05;32.76;100408.59;4363267;32;20051;-88
2022/06/15 06:41:43;;;;;;;;;;;;;;;25.36;32.22;100407.53;4351044;32;20023;-88
2022/06/15 06:44:10;;;;;;;;;;;;;;;25.31;32.39;100409.50;4355007;32;20014;-90
2022/06/15 06:46:40;;;;;;;;;;;;;;;25.65;31.70;100402.94;4357110;32;19989;-89
2022/06/15 06:49:07;;;;;;;;;;;;;;;25.87;32.02;100403.91;4365727;32;19994;-88
2022/06/15 06:51:37;;;;;;;;;;;;;;;26.07;30.61;100404.94;4358664;32;19995;-89
2022/06/15 06:54:05;;;;;;;;;;;;;;;26.43;31.71;100403.47;4356591;32;20001;-89
2022/06/15 06:56:34;;;;;;;;;;;;;;;26.49;29.95;100396.22;4372929;32;20006;-89
2022/06/15 06:59:01;;;;;;;;;;;;;;;26.65;29.80;100403.50;4372073;32;19991;-89
2022/06/15 07:01:28;;;;;;;;;;;;;;;26.95;28.65;100404.94;4362377;32;21027;-90
2022/06/15 07:03:55;;;;;;;;;;;;;;;26.92;29.85;100407.72;4347220;32;19992;-87
2022/06/15 07:06:22;;;;;;;;;;;;;;;26.89;29.78;100409.56;4357821;32;19979;-86
2022/06/15 07:08:50;;;;;;;;;;;;;;;26.86;29.42;100401.72;4355132;32;20004;-87
2022/06/15 07:11:19;;;;;;;;;;;;;;;27.36;28.47;100405.81;4357412;32;20209;-86
2022/06/15 07:13:46;;;;;;;;;;;;;;;27.64;27.71;100404.59;4352892;32;20253;-86
2022/06/15 07:16:14;;;;;;;;;;;;;;;27.67;28.12;100410.63;4371404;32;20032;-85
2022/06/15 07:18:43;;;;;;;;;;;;;;;27.63;28.84;100414.34;4360361;32;19987;-86
2022/06/15 07:21:14;;;;;;;;;;;;;;;27.95;29.22;100415.56;4339900;32;20002;-86
2022/06/15 07:23:41;;;;;;;;;;;;;;;27.99;30.29;100416.28;4377852;32;20377;-87
2022/06/15 07:26:10;;;;;;;;;;;;;;;28.06;30.61;100417.72;4366262;32;19998;-87
2022/06/15 07:28:38;;;;;;;;;;;;;;;27.94;28.82;100418.28;4209456;32;5092385;-87
2022/06/15 07:31:09;;;;;;;;;;;;;;;28.03;28.77;100412.53;4358304;32;19980;-87
2022/06/15 07:33:36;;;;;;;;;;;;;;;28.24;27.48;100411.53;4362974;32;19998;-87
2022/06/15 07:36:04;;;;;;;;;;;;;;;28.38;27.29;100407.34;4352341;32;19980;-86
2022/06/15 07:38:31;;;;;;;;;;;;;;;28.55;28.21;100407.38;4357404;32;20324;-86
2022/06/15 07:40:58;;;;;;;;;;;;;;;28.70;27.21;100401.31;4346987;32;20448;-85
2022/06/15 07:43:25;;;;;;;;;;;;;;;28.43;27.93;100413.31;4361801;32;19980;-85
2022/06/15 07:45:53;;;;;;;;;;;;;;;28.56;26.54;100409.13;4340556;32;19980;-91
2022/06/15 07:51:06;;;;;;;;;;;;;;;28.65;27.56;100395.31;4351344;32;20001;-89
2022/06/15 07:53:33;;;;;;;;;;;;;;;28.60;26.85;100402.69;4354411;32;20000;-87
2022/06/15 07:55:59;;;;;;;;;;;;;;;29.15;25.30;100410.59;4351832;32;20103;-90
2022/06/15 07:58:27;;;;;;;;;;;;;;;29.07;26.09;100407.47;4344340;32;20014;-87
2022/06/15 08:00:54;;;;;;;;;;;;;;;29.04;26.66;100402.28;4335471;32;20067;-87
2022/06/15 08:03:21;;;;;;;;;;;;;;;29.07;26.54;100396.81;4358231;32;19984;-90
2022/06/15 08:05:49;;;;;;;;;;;;;;;29.33;25.43;100391.91;4366572;32;19998;-89
2022/06/15 08:08:18;;;;;;;;;;;;;;;29.14;25.50;100406.19;4365829;32;20014;-86
2022/06/15 08:10:46;;;;;;;;;;;;;;;29.29;24.60;100401.00;4363931;32;20334;-87
2022/06/15 08:13:13;;;;;;;;;;;;;;;28.56;26.20;100395.81;4360348;32;19980;-87
2022/06/15 08:15:41;;;;;;;;;;;;;;;28.73;28.62;100395.81;4372493;32;19999;-87
2022/06/15 08:18:09;;;;;;;;;;;;;;;28.62;25.15;100400.84;4358269;32;19987;-88
2022/06/15 08:20:38;;;;;;;;;;;;;;;28.73;23.92;100398.47;4356462;32;20469;-88
2022/06/15 08:23:09;;;;;;;;;;;;;;;29.15;24.47;100391.91;4357644;32;20281;-85
2022/06/15 08:25:38;;;;;;;;;;;;;;;28.77;27.60;100387.66;4358666;32;20360;-90
2022/06/15 08:28:05;;;;;;;;;;;;;;;28.18;26.27;100390.53;4357447;32;20043;-92
2022/06/15 08:30:37;;;;;;;;;;;;;;;27.96;25.85;100403.13;4357406;32;20347;-90
2022/06/15 08:33:04;;;;;;;;;;;;;;;28.44;27.47;100401.75;4361440;32;19979;-90
2022/06/15 08:35:31;;;;;;;;;;;;;;;29.19;26.31;100398.81;4348092;32;19988;-91
2022/06/15 08:37:58;;;;;;;;;;;;;;;29.24;26.08;100403.91;4351423;32;19983;-90
2022/06/15 08:40:26;;;;;;;;;;;;;;;29.57;26.68;100401.25;4351744;32;20163;-88
2022/06/15 08:42:53;;;;;;;;;;;;;;;29.71;24.03;100397.00;4358999;32;19980;-89
2022/06/15 08:45:32;;;;;;;;;;;;;;;29.04;27.01;100402.28;4374332;32;20015;-87
2022/06/15 08:48:05;;;;;;;;;;;;;;;29.16;25.17;100388.34;4348205;32;19991;-87
2022/06/15 08:50:50;;;;;;;;;;;;;;;29.71;22.76;100394.31;4359896;32;19994;-89
2022/06/15 08:53:24;;;;;;;;;;;;;;;28.98;24.93;100391.91;4366111;32;19975;-88
2022/06/15 08:55:54;;;;;;;;;;;;;;;28.92;27.17;100398.41;4371779;32;20035;-84
2022/06/15 08:58:21;;;;;;;;;;;;;;;29.40;24.28;100385.28;4337018;32;20035;-87
2022/06/15 09:00:49;;;;;;;;;;;;;;;29.53;26.32;100389.03;4364087;32;20034;-87
2022/06/15 09:03:15;;;;;;;;;;;;;;;29.66;23.75;100379.44;4366885;32;19983;-86
2022/06/15 09:05:49;;;;;;;;;;;;;;;29.02;28.32;100388.16;4333708;32;20021;-86
2022/06/15 09:08:21;;;;;;;;;;;;;;;29.24;25.51;100382.59;4362746;32;20001;-87
2022/06/15 09:10:54;;;;;;;;;;;;;;;30.17;24.48;100383.78;4352479;32;19983;-83
2022/06/15 09:13:22;;;;;;;;;;;;;;;30.16;22.65;100382.06;4365897;32;19996;-84
2022/06/15 09:15:52;;;;;;;;;;;;;;;30.45;23.70;100378.59;4350336;32;19991;-83
2022/06/15 09:18:24;;;;;;;;;;;;;;;29.45;25.60;100385.91;4361256;32;20333;-83
2022/06/15 09:21:01;;;;;;;;;;;;;;;29.83;24.89;100385.66;4349711;32;19994;-83
2022/06/15 09:23:31;;;;;;;;;;;;;;;29.79;25.09;100373.44;4356513;32;19972;-82
2022/06/15 09:26:00;;;;;;;;;;;;;;;29.70;28.02;100379.28;4340441;32;20063;-84
2022/06/15 09:28:33;;;;;;;;;;;;;;;29.26;25.45;100377.16;4353088;32;19991;-87
2022/06/15 09:31:04;;;;;;;;;;;;;;;29.37;25.40;100382.78;4335179;32;19996;-84
2022/06/15 09:33:35;;;;;;;;;;;;;;;29.22;24.61;100379.13;4358578;32;20034;-82
2022/06/15 09:36:10;;;;;;;;;;;;;;;29.40;28.32;100377.28;4359077;32;20313;-85
2022/06/15 09:38:38;;;;;;;;;;;;;;;29.58;25.76;100376.31;4357185;32;20391;-83
2022/06/15 09:41:24;;;;;;;;;;;;;;;29.46;28.86;100371.63;4357370;32;20047;-82
2022/06/15 09:44:15;;;;;;;;;;;;;;;29.44;26.27;100373.50;4360790;32;20348;-84
2022/06/15 09:47:05;;;;;;;;;;;;;;;29.52;26.33;100371.31;4364346;32;20011;-86
2022/06/15 09:49:52;;;;;;;;;;;;;;;30.32;23.05;100366.91;4346815;32;19998;-89
2022/06/15 09:52:19;;;;;;;;;;;;;;;30.29;22.75;100369.75;4342094;32;19998;-87
2022/06/15 09:55:07;;;;;;;;;;;;;;;29.39;26.81;100365.78;4341133;32;20047;-87
2022/06/15 09:57:38;;;;;;;;;;;;;;;29.40;26.28;100366.63;4357835;32;20306;-89
2022/06/15 10:00:07;;;;;;;;;;;;;;;29.77;26.02;100360.19;4357410;32;20451;-87
2022/06/15 10:02:37;;;;;;;;;;;;;;;29.71;27.94;100359.63;4342558;32;20259;-86
2022/06/15 10:05:05;;;;;;;;;;;;;;;30.11;26.81;100356.47;4356508;32;20038;-87
2022/06/15 10:07:34;;;;;;;;;;;;;;;30.34;25.31;100348.97;4342169;32;20792;-88
2022/06/15 10:10:11;;;;;;;;;;;;;;;30.61;22.38;100342.97;4362431;32;19998;-88
2022/06/15 10:12:59;;;;;;;;;;;;;;;30.63;23.81;100338.37;4314076;32;56272;-86
2022/06/15 10:15:47;;;;;;;;;;;;;;;30.06;24.77;100334.53;4323022;32;20003;-88
2022/06/15 10:18:18;;;;;;;;;;;;;;;30.71;23.85;100336.13;4330327;32;19976;-87
2022/06/15 10:20:54;;;;;;;;;;;;;;;30.74;24.00;100336.81;4355536;32;20792;-82
2022/06/15 10:23:23;;;;;;;;;;;;;;;30.79;22.08;100329.41;4341293;32;20017;-89
2022/06/15 10:25:51;;;;;;;;;;;;;;;30.61;23.87;100337.62;4329635;32;19986;-87
2022/06/15 10:28:25;;;;;;;;;;;;;;;30.95;21.93;100340.03;4332885;32;20015;-85
2022/06/15 10:31:04;;;;;;;;;;;;;;;30.80;23.01;100340.97;4340391;32;19991;-86
2022/06/15 10:33:38;;;;;;;;;;;;;;;30.96;21.50;100336.41;4326735;32;20345;-87
2022/06/15 10:36:14;;;;;;;;;;;;;;;30.96;22.13;100340.91;4333651;32;19988;-86
2022/06/15 10:38:42;;;;;;;;;;;;;;;30.56;23.08;100330.72;4342227;32;20461;-86
2022/06/15 10:43:55;;;;;;;;;;;;;;;31.29;24.49;100321.91;4326375;32;20140;-85
2022/06/15 10:46:22;;;;;;;;;;;;;;;31.38;22.33;100324.03;4333294;32;20143;-84
2022/06/15 10:48:50;;;;;;;;;;;;;;;31.55;21.91;100317.59;4324575;32;20034;-84
2022/06/15 10:51:28;;;;;;;;;;;;;;;30.79;24.48;100318.72;4335281;32;20699;-85
2022/06/15 10:54:14;;;;;;;;;;;;;;;31.22;22.19;100323.25;4329832;32;19988;-86
2022/06/15 11:02:20;;;;;;;;;;;;;;;31.56;22.99;100308.66;4359210;32;19995;-85
2022/06/15 11:04:47;;;;;;;;;;;;;;;31.49;22.80;100313.53;4360953;32;19991;-86
2022/06/15 11:10:20;;;;;;;;;;;;;;;30.26;23.25;100308.50;4332476;33;20043;-84
2022/06/15 11:12:55;;;;;;;;;;;;;;;30.08;25.11;100295.22;4333791;33;20274;-84
2022/06/15 11:18:01;;;;;;;;;;;;;;;29.66;25.06;100299.38;4362477;32;20309;-83
2022/06/15 11:18:26;;;;;;;;;;;;;;;29.69;25.90;100297.50;4355890;32;19975;-82
2022/06/15 11:21:12;;;;;;;;;;;;;;;29.94;25.97;100297.84;4343157;32;19998;-85
2022/06/15 11:23:57;;;;;;;;;;;;;;;30.51;23.73;100290.09;4339224;33;19976;-85
2022/06/15 11:26:51;;;;;;;;;;;;;;;29.27;26.22;100296.22;4358737;32;20053;-84
2022/06/15 11:29:21;;;;;;;;;;;;;;;29.94;23.49;100280.97;4334587;33;19983;-83
2022/06/15 11:32:06;;;;;;;;;;;;;;;30.27;24.13;100283.50;4335308;32;20039;-84
2022/06/15 11:34:36;;;;;;;;;;;;;;;30.23;25.46;100281.97;4325087;33;19988;-84
2022/06/15 11:37:05;;;;;;;;;;;;;;;29.40;25.57;100276.78;4353539;32;20030;-84
2022/06/15 11:39:33;;;;;;;;;;;;;;;29.32;26.34;100288.81;4349911;32;20948;-84
2022/06/15 11:42:00;;;;;;;;;;;;;;;29.44;24.95;100282.81;4347824;32;20471;-84
2022/06/15 11:44:29;;;;;;;;;;;;;;;30.06;23.97;100275.78;4350801;32;20013;-86
2022/06/15 11:46:56;;;;;;;;;;;;;;;29.95;23.41;100278.19;4345589;32;20051;-84
2022/06/15 11:49:45;;;;;;;;;;;;;;;30.56;23.89;100269.28;4336788;32;19980;-85
2022/06/15 11:52:15;;;;;;;;;;;;;;;30.76;22.77;100276.09;4339486;32;20005;-85
2022/06/15 11:54:42;;;;;;;;;;;;;;;30.78;22.11;100268.88;4339633;32;20786;-85
2022/06/15 11:57:18;;;;;;;;;;;;;;;30.74;23.73;100266.44;4339480;32;20382;-85
2022/06/15 11:59:48;;;;;;;;;;;;;;;30.86;24.82;100273.75;4034393;32;10004506;-85
2022/06/15 12:02:18;;;;;;;;;;;;;;;30.92;23.52;100270.72;4297248;33;20055;-86
2022/06/15 12:04:52;;;;;;;;;;;;;;;31.14;23.90;100264.84;4318670;33;20018;-84
2022/06/15 12:07:25;;;;;;;;;;;;;;;31.08;22.50;100264.37;4318705;33;19992;-86
2022/06/15 12:10:05;;;;;;;;;;;;;;;30.09;26.29;100269.41;4308701;33;19984;-86
2022/06/15 12:12:53;;;;;;;;;;;;;;;29.77;24.96;100269.44;4312884;33;19973;-86
2022/06/15 12:15:21;;;;;;;;;;;;;;;29.93;25.81;100258.75;4319497;33;19992;-86
2022/06/15 12:18:06;;;;;;;;;;;;;;;30.29;24.68;100254.91;4307214;33;20859;-87
2022/06/15 12:20:51;;;;;;;;;;;;;;;30.28;25.40;100258.50;4307184;33;19979;-82
2022/06/15 12:23:45;;;;;;;;;;;;;;;30.69;23.59;100257.84;4308703;33;19995;-81
2022/06/15 12:26:18;;;;;;;;;;;;;;;30.69;23.92;100253.34;4299953;33;20051;-81
2022/06/15 12:28:45;;;;;;;;;;;;;;;30.91;22.38;100246.72;4301269;33;20084;-81
2022/06/15 12:31:18;;;;;;;;;;;;;;;30.29;24.52;100254.91;4310149;33;20052;-81
2022/06/15 12:33:57;;;;;;;;;;;;;;;29.80;23.53;100250.59;4320766;33;19990;-81
2022/06/15 12:36:30;;;;;;;;;;;;;;;30.39;23.49;100247.22;4308038;33;20334;-82
2022/06/15 12:38:57;;;;;;;;;;;;;;;30.61;23.98;100241.44;4305948;33;19996;-82
2022/06/15 12:44:16;;;;;;;;;;;;;;;31.12;23.83;100244.53;4315940;33;20504;-82
2022/06/15 12:46:44;;;;;;;;;;;;;;;30.53;24.45;100237.37;4320096;33;20930;-82
2022/06/15 12:49:36;;;;;;;;;;;;;;;30.61;23.83;100233.41;4293745;33;19992;-82
2022/06/15 12:52:12;;;;;;;;;;;;;;;30.95;22.43;100233.09;4304140;33;20001;-82
2022/06/15 12:54:54;;;;;;;;;;;;;;;31.04;23.71;100232.50;4293541;33;19984;-82
2022/06/15 12:57:20;;;;;;;;;;;;;;;30.76;23.90;100237.78;4292045;33;20436;-82
2022/06/15 12:59:48;;;;;;;;;;;;;;;30.64;24.30;100234.09;4295166;33;19981;-82
2022/06/15 13:02:21;;;;;;;;;;;;;;;29.85;24.99;100228.97;4292851;33;20432;-81
2022/06/15 13:04:55;;;;;;;;;;;;;;;29.93;25.80;100224.06;4294190;33;19980;-81
2022/06/15 13:07:29;;;;;;;;;;;;;;;29.25;28.83;100226.09;4302163;33;19989;-81
2022/06/15 13:10:13;;;;;;;;;;;;;;;30.21;24.30;100235.78;4294799;33;20698;-81
2022/06/15 13:12:43;;;;;;;;;;;;;;;30.08;24.78;100225.78;4293740;33;20004;-81